createdAt,value
2023-01-29T00:00:52.043Z,-6.28
2023-01-29T00:01:52.202Z,-6.28
2023-01-29T00:02:52.113Z,-6
2023-01-29T00:03:52.044Z,-5.56
2023-01-29T00:04:52.039Z,-5.39
2023-01-29T00:05:52.043Z,-6
2023-01-29T00:06:52.050Z,-5.72
2023-01-29T00:07:52.051Z,-6
2023-01-29T00:08:52.043Z,-6
2023-01-29T00:09:52.047Z,-6.11
2023-01-29T00:10:52.043Z,-6.28
2023-01-29T00:11:52.065Z,-5.72
2023-01-29T00:12:52.091Z,-5.72
2023-01-29T00:13:52.050Z,-5.72
2023-01-29T00:14:52.112Z,-6
2023-01-29T00:15:52.054Z,-5.72
2023-01-29T00:16:52.070Z,-5.72
2023-01-29T00:17:52.065Z,-5.72
2023-01-29T00:18:52.058Z,-6
2023-01-29T00:19:52.068Z,-6
2023-01-29T00:20:52.073Z,-5.83
2023-01-29T00:21:52.078Z,-6.44
2023-01-29T00:22:52.074Z,-5.83
2023-01-29T00:23:52.070Z,-6.28
2023-01-29T00:24:52.099Z,-5.83
2023-01-29T00:25:52.067Z,-5.72
2023-01-29T00:26:52.075Z,-6.44
2023-01-29T00:27:52.099Z,-6.11
2023-01-29T00:28:52.083Z,-6.72
2023-01-29T00:29:52.070Z,-6.11
2023-01-29T00:30:52.075Z,-6.44
2023-01-29T00:31:52.173Z,-6.44
2023-01-29T00:32:52.086Z,-6.61
2023-01-29T00:33:52.099Z,-6.11
2023-01-29T00:34:52.081Z,-6.61
2023-01-29T00:35:52.094Z,-6.11
2023-01-29T00:36:52.138Z,-6.44
2023-01-29T00:37:52.107Z,-6.11
2023-01-29T00:38:52.088Z,-6
2023-01-29T00:39:52.088Z,-6.28
2023-01-29T00:40:52.087Z,-6.28
2023-01-29T00:41:52.094Z,-6.11
2023-01-29T00:42:52.116Z,-6.11
2023-01-29T00:43:52.133Z,-6.28
2023-01-29T00:44:52.106Z,-6.28
2023-01-29T00:45:52.093Z,-6.61
2023-01-29T00:46:52.091Z,-6.28
2023-01-29T00:47:52.108Z,-6.61
2023-01-29T00:48:52.105Z,-6.72
2023-01-29T00:49:52.103Z,-6.89
2023-01-29T00:50:52.107Z,-6.61
2023-01-29T00:51:52.099Z,-6.61
2023-01-29T00:52:52.109Z,-6.61
2023-01-29T00:53:52.116Z,-6.72
2023-01-29T00:54:52.094Z,-7.17
2023-01-29T00:55:52.104Z,-6.61
2023-01-29T00:56:52.099Z,-6.89
2023-01-29T00:57:52.108Z,-6.72
2023-01-29T00:58:52.110Z,-6.72
2023-01-29T00:59:52.128Z,-6.72
2023-01-29T01:00:52.150Z,-6.61
2023-01-29T01:01:52.128Z,-6.89
2023-01-29T01:02:52.104Z,-6.61
2023-01-29T01:03:52.114Z,-6.61
2023-01-29T01:04:52.129Z,-6.89
2023-01-29T01:05:52.119Z,-6.44
2023-01-29T01:06:52.112Z,-6.61
2023-01-29T01:07:52.106Z,-6.28
2023-01-29T01:08:52.134Z,-6.11
2023-01-29T01:09:52.119Z,-6.28
2023-01-29T01:10:52.122Z,-6.28
2023-01-29T01:11:52.113Z,-6.28
2023-01-29T01:12:52.131Z,-6.28
2023-01-29T01:13:52.131Z,-6.28
2023-01-29T01:14:52.116Z,-6.44
2023-01-29T01:15:52.136Z,-6.72
2023-01-29T01:16:52.125Z,-6.72
2023-01-29T01:17:52.120Z,-6.61
2023-01-29T01:18:52.128Z,-6.11
2023-01-29T01:19:52.154Z,-6.44
2023-01-29T01:20:52.135Z,-6.11
2023-01-29T01:21:52.115Z,-6.44
2023-01-29T01:22:52.142Z,-6.11
2023-01-29T01:23:52.124Z,-6
2023-01-29T01:24:52.133Z,-6.28
2023-01-29T01:25:52.129Z,-6.11
2023-01-29T01:26:52.131Z,-6.28
2023-01-29T01:27:52.129Z,-6.28
2023-01-29T01:28:52.123Z,-6.61
2023-01-29T01:29:52.129Z,-6.61
2023-01-29T01:30:52.150Z,-6.72
2023-01-29T01:31:52.209Z,-7.06
2023-01-29T01:32:52.134Z,-7.33
2023-01-29T01:33:52.128Z,-7.17
2023-01-29T01:34:52.126Z,-7.06
2023-01-29T01:35:52.141Z,-7.06
2023-01-29T01:36:52.134Z,-6.89
2023-01-29T01:37:52.128Z,-6.89
2023-01-29T01:38:52.134Z,-6.89
2023-01-29T01:39:52.132Z,-6.61
2023-01-29T01:40:52.138Z,-6.61
2023-01-29T01:41:52.139Z,-6.89
2023-01-29T01:42:52.134Z,-7.06
2023-01-29T01:43:52.123Z,-7.17
2023-01-29T01:44:52.138Z,-6.61
2023-01-29T01:45:52.264Z,-6.61
2023-01-29T01:46:52.131Z,-6.89
2023-01-29T01:47:52.163Z,-6.72
2023-01-29T01:48:52.176Z,-6.72
2023-01-29T01:49:52.139Z,-6.72
2023-01-29T01:50:52.141Z,-6.72
2023-01-29T01:51:52.145Z,-6.61
2023-01-29T01:52:52.141Z,-6.61
2023-01-29T01:53:52.127Z,-6.61
2023-01-29T01:54:52.147Z,-6.72
2023-01-29T01:55:52.130Z,-6.72
2023-01-29T01:56:52.145Z,-6.61
2023-01-29T01:57:52.152Z,-6.61
2023-01-29T01:58:52.148Z,-6.28
2023-01-29T01:59:52.145Z,-6.44
2023-01-29T02:00:52.176Z,-6.44
2023-01-29T02:01:52.190Z,-6.44
2023-01-29T02:02:52.144Z,-6.28
2023-01-29T02:03:52.160Z,-6.44
2023-01-29T02:04:52.154Z,-6.28
2023-01-29T02:05:52.135Z,-6.11
2023-01-29T02:06:52.146Z,-6.11
2023-01-29T02:07:52.147Z,-6.11
2023-01-29T02:08:52.141Z,-6.11
2023-01-29T02:09:52.193Z,-6
2023-01-29T02:10:52.154Z,-6.11
2023-01-29T02:11:52.168Z,-6.28
2023-01-29T02:12:52.156Z,-6.11
2023-01-29T02:13:52.171Z,-6.28
2023-01-29T02:14:52.165Z,-6.28
2023-01-29T02:15:52.167Z,-6.11
2023-01-29T02:16:52.167Z,-6.11
2023-01-29T02:17:52.180Z,-6.28
2023-01-29T02:18:52.166Z,-6.44
2023-01-29T02:19:52.197Z,-6.44
2023-01-29T02:20:52.174Z,-6.28
2023-01-29T02:21:52.189Z,-6.61
2023-01-29T02:22:52.167Z,-6.61
2023-01-29T02:23:52.363Z,-6.89
2023-01-29T02:24:52.177Z,-6.61
2023-01-29T02:25:52.184Z,-7.17
2023-01-29T02:26:52.177Z,-6.61
2023-01-29T02:27:52.188Z,-6.61
2023-01-29T02:28:52.188Z,-6.61
2023-01-29T02:29:52.201Z,-6.89
2023-01-29T02:30:52.201Z,-6.72
2023-01-29T02:31:52.251Z,-6.72
2023-01-29T02:32:52.209Z,-6.61
2023-01-29T02:33:52.191Z,-6.72
2023-01-29T02:34:52.190Z,-6.44
2023-01-29T02:35:52.216Z,-6.44
2023-01-29T02:36:52.194Z,-6.28
2023-01-29T02:37:52.203Z,-6.28
2023-01-29T02:38:52.223Z,-6.72
2023-01-29T02:39:52.204Z,-7.06
2023-01-29T02:40:52.205Z,-7.17
2023-01-29T02:41:52.204Z,-6.72
2023-01-29T02:42:52.205Z,-6.61
2023-01-29T02:43:52.238Z,-6.61
2023-01-29T02:44:52.233Z,-6.44
2023-01-29T02:45:52.298Z,-6.61
2023-01-29T02:46:52.241Z,-6.61
2023-01-29T02:47:52.277Z,-6.61
2023-01-29T02:48:52.227Z,-6.61
2023-01-29T02:49:52.245Z,-6.61
2023-01-29T02:50:52.224Z,-7.06
2023-01-29T02:51:52.260Z,-6.89
2023-01-29T02:52:52.242Z,-6.61
2023-01-29T02:53:52.224Z,-6.44
2023-01-29T02:54:52.230Z,-6.89
2023-01-29T02:55:52.238Z,-6.72
2023-01-29T02:56:52.229Z,-6.61
2023-01-29T02:57:52.234Z,-6.89
2023-01-29T02:58:52.229Z,-6.28
2023-01-29T02:59:52.245Z,-6.44
2023-01-29T03:00:52.287Z,-6.28
2023-01-29T03:01:52.241Z,-6.11
2023-01-29T03:02:52.253Z,-6.44
2023-01-29T03:03:52.239Z,-6.11
2023-01-29T03:04:52.241Z,-5.83
2023-01-29T03:05:52.240Z,-6.28
2023-01-29T03:06:52.248Z,-5.83
2023-01-29T03:07:52.282Z,-6.11
2023-01-29T03:08:52.241Z,-6.11
2023-01-29T03:09:52.245Z,-6.11
2023-01-29T03:10:52.246Z,-6
2023-01-29T03:11:52.245Z,-6
2023-01-29T03:12:52.296Z,-6.28
2023-01-29T03:13:52.276Z,-6.11
2023-01-29T03:14:52.270Z,-6
2023-01-29T03:15:52.257Z,-6.11
2023-01-29T03:16:52.266Z,-6
2023-01-29T03:17:52.263Z,-6.44
2023-01-29T03:18:52.256Z,-6.61
2023-01-29T03:19:52.263Z,-6.11
2023-01-29T03:20:52.272Z,-6.11
2023-01-29T03:21:52.264Z,-7.06
2023-01-29T03:22:52.275Z,-6.72
2023-01-29T03:23:52.303Z,-6.89
2023-01-29T03:24:52.281Z,-6.44
2023-01-29T03:25:52.280Z,-6.44
2023-01-29T03:26:52.274Z,-6.28
2023-01-29T03:27:52.282Z,-6.89
2023-01-29T03:28:52.279Z,-6.28
2023-01-29T03:29:52.287Z,-6.89
2023-01-29T03:30:52.299Z,-6.44
2023-01-29T03:31:52.312Z,-6.28
2023-01-29T03:32:52.280Z,-6.28
2023-01-29T03:33:52.282Z,-6.44
2023-01-29T03:34:52.298Z,-6.28
2023-01-29T03:35:52.288Z,-6.44
2023-01-29T03:36:52.287Z,-6.61
2023-01-29T03:37:52.280Z,-6.11
2023-01-29T03:38:52.289Z,-6.44
2023-01-29T03:39:52.315Z,-6.11
2023-01-29T03:40:52.304Z,-6.28
2023-01-29T03:41:52.298Z,-6.44
2023-01-29T03:42:52.312Z,-6.11
2023-01-29T03:43:52.311Z,-6.28
2023-01-29T03:44:52.296Z,-6.11
2023-01-29T03:45:52.392Z,-6.44
2023-01-29T03:46:52.296Z,-6.11
2023-01-29T03:47:52.313Z,-6.11
2023-01-29T03:48:52.301Z,-6
2023-01-29T03:49:52.300Z,-5.83
2023-01-29T03:50:52.340Z,-5.83
2023-01-29T03:51:52.325Z,-6.11
2023-01-29T03:52:52.308Z,-5.83
2023-01-29T03:53:52.313Z,-6
2023-01-29T03:54:52.366Z,-5.72
2023-01-29T03:55:52.321Z,-5.56
2023-01-29T03:56:52.323Z,-5.56
2023-01-29T03:57:52.333Z,-5.72
2023-01-29T03:58:52.333Z,-5.22
2023-01-29T03:59:52.318Z,-5.39
2023-01-29T04:00:52.320Z,-5.39
2023-01-29T04:01:52.333Z,-5.56
2023-01-29T04:02:52.339Z,-5.56
2023-01-29T04:03:52.381Z,-5.72
2023-01-29T04:04:52.340Z,-5.83
2023-01-29T04:05:52.333Z,-5.72
2023-01-29T04:06:52.339Z,-5.39
2023-01-29T04:07:52.333Z,-5.56
2023-01-29T04:08:52.346Z,-6
2023-01-29T04:09:52.336Z,-6.11
2023-01-29T04:10:52.344Z,-5.83
2023-01-29T04:11:52.380Z,-5.56
2023-01-29T04:12:52.332Z,-5.39
2023-01-29T04:13:52.348Z,-5.83
2023-01-29T04:14:52.351Z,-5.83
2023-01-29T04:15:52.355Z,-6
2023-01-29T04:16:52.360Z,-6.11
2023-01-29T04:17:52.363Z,-6
2023-01-29T04:18:52.354Z,-6.11
2023-01-29T04:19:52.357Z,-6.61
2023-01-29T04:20:52.369Z,-6.28
2023-01-29T04:21:52.351Z,-6.28
2023-01-29T04:22:52.378Z,-6
2023-01-29T04:23:52.381Z,-6
2023-01-29T04:24:52.372Z,-5.83
2023-01-29T04:25:52.359Z,-6.11
2023-01-29T04:26:52.373Z,-6.11
2023-01-29T04:27:52.378Z,-6
2023-01-29T04:28:52.366Z,-5.83
2023-01-29T04:29:52.380Z,-5.83
2023-01-29T04:30:52.456Z,-6.11
2023-01-29T04:31:52.429Z,-6
2023-01-29T04:32:52.380Z,-5.83
2023-01-29T04:33:52.383Z,-6.28
2023-01-29T04:34:52.374Z,-6
2023-01-29T04:35:52.375Z,-5.83
2023-01-29T04:36:52.410Z,-6
2023-01-29T04:37:52.374Z,-5.83
2023-01-29T04:38:52.401Z,-6.28
2023-01-29T04:39:52.385Z,-5.83
2023-01-29T04:40:52.371Z,-5.83
2023-01-29T04:41:52.375Z,-6
2023-01-29T04:42:52.383Z,-5.83
2023-01-29T04:43:52.388Z,-5.72
2023-01-29T04:44:52.392Z,-5.72
2023-01-29T04:45:52.404Z,-5.72
2023-01-29T04:46:52.385Z,-6
2023-01-29T04:47:52.389Z,-5.56
2023-01-29T04:48:52.393Z,-5.39
2023-01-29T04:49:52.396Z,-5.39
2023-01-29T04:50:52.393Z,-4.94
2023-01-29T04:51:52.408Z,-5.22
2023-01-29T04:52:52.409Z,-5.22
2023-01-29T04:53:52.409Z,-5.22
2023-01-29T04:54:52.400Z,-5.39
2023-01-29T04:55:52.401Z,-5.39
2023-01-29T04:56:52.400Z,-5.39
2023-01-29T04:57:52.407Z,-5.22
2023-01-29T04:58:52.404Z,-5.39
2023-01-29T04:59:52.399Z,-5.39
2023-01-29T05:00:52.411Z,-5.39
2023-01-29T05:01:52.448Z,-6
2023-01-29T05:02:52.428Z,-5.56
2023-01-29T05:03:52.416Z,-5.56
2023-01-29T05:04:52.411Z,-5.22
2023-01-29T05:05:52.406Z,-5.56
2023-01-29T05:06:52.406Z,-5.72
2023-01-29T05:07:52.416Z,-5.72
2023-01-29T05:08:52.425Z,-5.56
2023-01-29T05:09:52.412Z,-6
2023-01-29T05:10:52.406Z,-5.83
2023-01-29T05:11:52.414Z,-5.56
2023-01-29T05:12:52.409Z,-6
2023-01-29T05:13:52.433Z,-6
2023-01-29T05:14:52.412Z,-5.39
2023-01-29T05:15:52.474Z,-5.56
2023-01-29T05:16:52.417Z,-5.56
2023-01-29T05:17:52.407Z,-5.56
2023-01-29T05:18:52.414Z,-5.39
2023-01-29T05:19:52.415Z,-5.39
2023-01-29T05:20:52.429Z,-5.39
2023-01-29T05:21:52.464Z,-5.22
2023-01-29T05:22:52.419Z,-5.39
2023-01-29T05:23:52.417Z,-5.22
2023-01-29T05:24:52.434Z,-5.39
2023-01-29T05:25:52.433Z,-5.22
2023-01-29T05:26:52.427Z,-5.22
2023-01-29T05:27:52.432Z,-5.22
2023-01-29T05:28:52.704Z,-5.72
2023-01-29T05:29:52.481Z,-5.72
2023-01-29T05:30:52.461Z,-5.83
2023-01-29T05:31:52.458Z,-5.72
2023-01-29T05:32:52.441Z,-5.56
2023-01-29T05:33:52.479Z,-5.56
2023-01-29T05:34:52.434Z,-5.56
2023-01-29T05:35:52.444Z,-5.56
2023-01-29T05:36:52.447Z,-5.72
2023-01-29T05:37:52.479Z,-5.83
2023-01-29T05:38:52.440Z,-5.83
2023-01-29T05:39:52.439Z,-5.83
2023-01-29T05:40:52.475Z,-6.11
2023-01-29T05:41:52.445Z,-6.11
2023-01-29T05:42:52.439Z,-6
2023-01-29T05:43:52.454Z,-5.83
2023-01-29T05:44:52.504Z,-5.83
2023-01-29T05:45:52.430Z,-6
2023-01-29T05:46:52.503Z,-5.56
2023-01-29T05:47:52.448Z,-5.72
2023-01-29T05:48:52.444Z,-6
2023-01-29T05:49:52.454Z,-5.72
2023-01-29T05:50:52.472Z,-5.39
2023-01-29T05:51:52.450Z,-6
2023-01-29T05:52:52.458Z,-6
2023-01-29T05:53:52.446Z,-5.83
2023-01-29T05:54:52.440Z,-6.28
2023-01-29T05:55:52.469Z,-5.83
2023-01-29T05:56:52.457Z,-5.83
2023-01-29T05:57:52.440Z,-5.72
2023-01-29T05:58:52.461Z,-5.72
2023-01-29T05:59:52.469Z,-6
2023-01-29T06:00:52.444Z,-5.83
2023-01-29T06:01:52.746Z,-5.83
2023-01-29T06:02:52.521Z,-6
2023-01-29T06:03:52.459Z,-6
2023-01-29T06:04:52.453Z,-5.72
2023-01-29T06:05:52.468Z,-5.56
2023-01-29T06:06:52.469Z,-5.72
2023-01-29T06:07:52.459Z,-5.83
2023-01-29T06:08:52.467Z,-5.72
2023-01-29T06:09:52.453Z,-6.11
2023-01-29T06:10:52.455Z,-5.72
2023-01-29T06:11:52.453Z,-5.72
2023-01-29T06:12:52.456Z,-5.83
2023-01-29T06:13:52.471Z,-5.72
2023-01-29T06:14:52.464Z,-5.72
2023-01-29T06:15:52.509Z,-5.72
2023-01-29T06:16:52.454Z,-5.56
2023-01-29T06:17:52.484Z,-5.56
2023-01-29T06:18:52.479Z,-5.56
2023-01-29T06:19:52.484Z,-5.56
2023-01-29T06:20:52.461Z,-6.11
2023-01-29T06:21:52.486Z,-5.72
2023-01-29T06:22:52.478Z,-5.56
2023-01-29T06:23:52.460Z,-5.56
2023-01-29T06:24:52.474Z,-5.56
2023-01-29T06:25:52.478Z,-5.39
2023-01-29T06:26:52.466Z,-5.22
2023-01-29T06:27:52.467Z,-5.39
2023-01-29T06:28:52.459Z,-5.56
2023-01-29T06:29:52.468Z,-5.39
2023-01-29T06:30:52.520Z,-5.22
2023-01-29T06:31:52.578Z,-5.39
2023-01-29T06:32:52.486Z,-5.39
2023-01-29T06:33:52.533Z,-5.56
2023-01-29T06:34:52.478Z,-5.56
2023-01-29T06:35:52.470Z,-5.22
2023-01-29T06:36:52.474Z,-5.22
2023-01-29T06:37:52.469Z,-5.39
2023-01-29T06:38:52.490Z,-5.22
2023-01-29T06:39:52.461Z,-5.22
2023-01-29T06:40:52.536Z,-5.22
2023-01-29T06:41:52.473Z,-5.56
2023-01-29T06:42:52.489Z,-5.22
2023-01-29T06:43:52.495Z,-5.39
2023-01-29T06:44:52.483Z,-5.06
2023-01-29T06:45:52.561Z,-4.94
2023-01-29T06:46:52.497Z,-4.94
2023-01-29T06:47:52.486Z,-5.39
2023-01-29T06:48:52.495Z,-4.94
2023-01-29T06:49:52.491Z,-5.22
2023-01-29T06:50:52.502Z,-4.94
2023-01-29T06:51:52.488Z,-5.06
2023-01-29T06:52:52.494Z,-5.39
2023-01-29T06:53:52.492Z,-5.22
2023-01-29T06:54:52.521Z,-5.22
2023-01-29T06:55:52.488Z,-5.22
2023-01-29T06:56:52.511Z,-5.22
2023-01-29T06:57:52.506Z,-5.83
2023-01-29T06:58:52.495Z,-6
2023-01-29T06:59:52.501Z,-5.72
2023-01-29T07:00:52.607Z,-5.56
2023-01-29T07:01:52.631Z,-5.83
2023-01-29T07:02:52.509Z,-5.39
2023-01-29T07:03:52.502Z,-5.39
2023-01-29T07:04:52.515Z,-5.22
2023-01-29T07:05:52.527Z,-5.39
2023-01-29T07:06:52.505Z,-5.39
2023-01-29T07:07:52.512Z,-5.72
2023-01-29T07:08:52.512Z,-5.22
2023-01-29T07:09:52.512Z,-5.22
2023-01-29T07:10:52.518Z,-5.22
2023-01-29T07:11:52.521Z,-5.22
2023-01-29T07:12:52.508Z,-5.22
2023-01-29T07:13:52.539Z,-5.22
2023-01-29T07:14:52.511Z,-5.06
2023-01-29T07:15:52.569Z,-5.39
2023-01-29T07:16:52.525Z,-5.22
2023-01-29T07:17:52.537Z,-5.39
2023-01-29T07:18:52.526Z,-5.39
2023-01-29T07:19:52.590Z,-5.22
2023-01-29T07:20:52.524Z,-5.39
2023-01-29T07:21:52.526Z,-5.06
2023-01-29T07:22:52.532Z,-4.78
2023-01-29T07:23:52.545Z,-5.22
2023-01-29T07:24:52.538Z,-5.22
2023-01-29T07:25:52.540Z,-5.06
2023-01-29T07:26:52.534Z,-5.06
2023-01-29T07:27:52.547Z,-5.22
2023-01-29T07:28:52.544Z,-5.22
2023-01-29T07:29:52.555Z,-5.22
2023-01-29T07:30:52.556Z,-5.39
2023-01-29T07:31:52.702Z,-4.94
2023-01-29T07:32:52.550Z,-4.94
2023-01-29T07:33:52.566Z,-5.22
2023-01-29T07:34:52.560Z,-5.06
2023-01-29T07:35:52.597Z,-5.39
2023-01-29T07:36:52.568Z,-5.22
2023-01-29T07:37:52.566Z,-5.22
2023-01-29T07:38:52.555Z,-4.94
2023-01-29T07:39:52.554Z,-5.39
2023-01-29T07:40:52.561Z,-5.06
2023-01-29T07:41:52.574Z,-4.78
2023-01-29T07:42:52.572Z,-4.78
2023-01-29T07:43:52.561Z,-4.78
2023-01-29T07:44:52.574Z,-4.78
2023-01-29T07:45:52.652Z,-5.06
2023-01-29T07:46:52.581Z,-4.78
2023-01-29T07:47:52.584Z,-4.78
2023-01-29T07:48:52.575Z,-5.06
2023-01-29T07:49:52.569Z,-5.39
2023-01-29T07:50:52.568Z,-4.61
2023-01-29T07:51:52.568Z,-4.5
2023-01-29T07:52:52.571Z,-4.94
2023-01-29T07:53:52.580Z,-4.61
2023-01-29T07:54:52.589Z,-4.61
2023-01-29T07:55:52.581Z,-4.33
2023-01-29T07:56:52.577Z,-4.22
2023-01-29T07:57:52.580Z,-4.06
2023-01-29T07:58:52.583Z,-4.06
2023-01-29T07:59:52.600Z,-3.89
2023-01-29T08:00:52.638Z,-4.06
2023-01-29T08:01:52.654Z,-4.33
2023-01-29T08:02:52.617Z,-4.22
2023-01-29T08:03:52.595Z,-4.78
2023-01-29T08:04:52.601Z,-4.06
2023-01-29T08:05:52.604Z,-4.06
2023-01-29T08:06:52.598Z,-3.72
2023-01-29T08:08:05.527Z,-3.89
2023-01-29T08:08:52.600Z,-3.61
2023-01-29T08:09:52.614Z,-3.89
2023-01-29T08:10:52.610Z,-3.89
2023-01-29T08:11:52.608Z,-4.06
2023-01-29T08:12:52.621Z,-3.89
2023-01-29T08:13:52.672Z,-4.61
2023-01-29T08:14:52.613Z,-4.33
2023-01-29T08:15:52.626Z,-4.33
2023-01-29T08:16:52.663Z,-4.5
2023-01-29T08:18:52.630Z,-4.5
2023-01-29T08:19:52.628Z,-4.33
2023-01-29T08:20:52.970Z,-4.5
2023-01-29T08:21:52.629Z,-4.33
2023-01-29T08:22:52.637Z,-4.06
2023-01-29T08:23:52.624Z,-4.06
2023-01-29T08:24:53.895Z,-3.89
2023-01-29T08:25:52.711Z,-4.06
2023-01-29T08:26:52.625Z,-3.89
2023-01-29T08:27:52.643Z,-3.89
2023-01-29T08:28:52.635Z,-3.72
2023-01-29T08:29:52.729Z,-3.89
2023-01-29T08:30:52.685Z,-4.22
2023-01-29T08:31:52.740Z,-4.22
2023-01-29T08:32:52.654Z,-4.33
2023-01-29T08:33:52.645Z,-4.06
2023-01-29T08:34:52.658Z,-4.22
2023-01-29T08:35:52.661Z,-4.06
2023-01-29T08:36:52.657Z,-3.89
2023-01-29T08:37:52.655Z,-3.72
2023-01-29T08:38:52.653Z,-4.06
2023-01-29T08:39:52.665Z,-3.89
2023-01-29T08:40:52.661Z,-3.89
2023-01-29T08:41:52.670Z,-3.89
2023-01-29T08:42:52.656Z,-3.89
2023-01-29T08:43:52.664Z,-4.22
2023-01-29T08:44:52.711Z,-4.22
2023-01-29T08:45:52.716Z,-4.06
2023-01-29T08:46:52.660Z,-3.89
2023-01-29T08:47:52.666Z,-3.72
2023-01-29T08:48:52.658Z,-3.44
2023-01-29T08:49:52.675Z,-3.61
2023-01-29T08:50:52.669Z,-3.89
2023-01-29T08:51:52.656Z,-4.22
2023-01-29T08:52:52.669Z,-3.89
2023-01-29T08:53:52.672Z,-3.89
2023-01-29T08:54:52.693Z,-4.06
2023-01-29T08:55:52.677Z,-4.33
2023-01-29T08:56:52.680Z,-3.72
2023-01-29T08:57:52.671Z,-3.72
2023-01-29T08:58:52.677Z,-3.44
2023-01-29T08:59:52.673Z,-3.17
2023-01-29T09:00:52.731Z,-3.06
2023-01-29T09:01:52.686Z,-3.17
2023-01-29T09:02:52.673Z,-3.06
2023-01-29T09:03:52.681Z,-2.89
2023-01-29T09:04:52.689Z,-2.89
2023-01-29T09:05:52.680Z,-3.06
2023-01-29T09:06:52.706Z,-3.28
2023-01-29T09:07:54.192Z,-3.28
2023-01-29T09:08:52.685Z,-3.44
2023-01-29T09:09:52.690Z,-3.44
2023-01-29T09:10:52.677Z,-3.61
2023-01-29T09:11:52.694Z,-3.61
2023-01-29T09:12:52.690Z,-3.44
2023-01-29T09:13:52.690Z,-3.28
2023-01-29T09:14:52.739Z,-3.17
2023-01-29T09:15:52.704Z,-3.06
2023-01-29T09:16:52.719Z,-3.44
2023-01-29T09:17:52.691Z,-2.72
2023-01-29T09:18:52.698Z,-2.61
2023-01-29T09:19:52.697Z,-2.44
2023-01-29T09:20:52.698Z,-2.17
2023-01-29T09:21:52.707Z,-2.17
2023-01-29T09:22:52.691Z,-2.61
2023-01-29T09:23:52.701Z,-2.44
2023-01-29T09:24:52.706Z,-2.17
2023-01-29T09:25:52.698Z,-2.17
2023-01-29T09:26:52.735Z,-2.61
2023-01-29T09:27:52.810Z,-2.61
2023-01-29T09:28:52.700Z,-2.72
2023-01-29T09:29:52.711Z,-3.06
2023-01-29T09:30:52.773Z,-2.72
2023-01-29T09:31:52.886Z,-2.61
2023-01-29T09:32:54.326Z,-2.17
2023-01-29T09:33:52.717Z,-2.17
2023-01-29T09:34:52.712Z,-1.67
2023-01-29T09:35:52.795Z,-1.67
2023-01-29T09:36:52.711Z,-2.17
2023-01-29T09:37:52.801Z,-2.17
2023-01-29T09:38:52.727Z,-2.28
2023-01-29T09:39:52.803Z,-2.61
2023-01-29T09:40:52.722Z,-2.72
2023-01-29T09:41:52.721Z,-2.72
2023-01-29T09:42:52.729Z,-2.61
2023-01-29T09:43:52.727Z,-2.61
2023-01-29T09:44:52.724Z,-2.44
2023-01-29T09:45:52.768Z,-2.17
2023-01-29T09:46:52.745Z,-1.67
2023-01-29T09:47:52.733Z,-1.56
2023-01-29T09:48:52.733Z,-1
2023-01-29T09:49:52.762Z,-0.67
2023-01-29T09:50:52.783Z,-1
2023-01-29T09:51:52.808Z,-1
2023-01-29T09:52:52.740Z,-1.28
2023-01-29T09:53:52.747Z,-1.11
2023-01-29T09:54:52.753Z,-1.83
2023-01-29T09:55:52.733Z,-1.44
2023-01-29T09:56:52.735Z,-1
2023-01-29T09:57:52.735Z,-1
2023-01-29T09:58:52.733Z,-0.56
2023-01-29T09:59:52.741Z,-0.83
2023-01-29T10:00:52.750Z,-1.11
2023-01-29T10:01:52.931Z,-1.28
2023-01-29T10:02:52.733Z,-0.83
2023-01-29T10:03:52.733Z,-1.11
2023-01-29T10:04:52.837Z,-0.39
2023-01-29T10:05:52.739Z,-0.67
2023-01-29T10:06:52.737Z,-0.67
2023-01-29T10:07:52.731Z,-0.39
2023-01-29T10:08:52.737Z,-0.39
2023-01-29T10:09:52.745Z,0.44
2023-01-29T10:10:52.758Z,-0.17
2023-01-29T10:11:52.795Z,0
2023-01-29T10:12:52.748Z,0
2023-01-29T10:13:52.735Z,0
2023-01-29T10:14:52.791Z,0
2023-01-29T10:15:52.745Z,-0.17
2023-01-29T10:16:52.811Z,-0.39
2023-01-29T10:17:52.739Z,-1
2023-01-29T10:18:52.732Z,-0.39
2023-01-29T10:19:52.751Z,-0.56
2023-01-29T10:20:52.741Z,-0.67
2023-01-29T10:21:52.741Z,-0.39
2023-01-29T10:22:52.729Z,-0.83
2023-01-29T10:23:52.755Z,-1.67
2023-01-29T10:24:52.739Z,-2.17
2023-01-29T10:25:52.744Z,-1.56
2023-01-29T10:26:52.748Z,-1
2023-01-29T10:27:52.736Z,-0.39
2023-01-29T10:28:52.756Z,-0.17
2023-01-29T10:29:52.758Z,0.28
2023-01-29T10:30:52.838Z,-0.83
2023-01-29T10:31:52.929Z,-1
2023-01-29T10:32:52.745Z,-0.67
2023-01-29T10:34:02.285Z,-1
2023-01-29T10:34:52.733Z,-0.67
2023-01-29T10:35:53.421Z,-0.28
2023-01-29T10:36:52.753Z,0.28
2023-01-29T10:37:52.744Z,0.28
2023-01-29T10:38:52.813Z,0.89
2023-01-29T10:39:52.742Z,0.89
2023-01-29T10:40:52.757Z,1.17
2023-01-29T10:41:53.955Z,0.89
2023-01-29T10:42:52.753Z,1.33
2023-01-29T10:43:52.740Z,1.06
2023-01-29T10:44:52.763Z,0.44
2023-01-29T10:45:52.749Z,0.17
2023-01-29T10:46:52.743Z,0.61
2023-01-29T10:47:52.891Z,0
2023-01-29T10:48:52.749Z,-0.17
2023-01-29T10:49:52.764Z,0
2023-01-29T10:50:52.778Z,-0.39
2023-01-29T10:51:52.753Z,-0.83
2023-01-29T10:52:52.743Z,-1.11
2023-01-29T10:53:52.747Z,-0.83
2023-01-29T10:54:52.743Z,-1
2023-01-29T10:55:52.744Z,-1
2023-01-29T10:56:52.745Z,-0.83
2023-01-29T10:57:52.739Z,-1.28
2023-01-29T10:58:52.764Z,-1.28
2023-01-29T10:59:52.759Z,-1.28
2023-01-29T11:00:52.748Z,-0.83
2023-01-29T11:01:52.812Z,-1.11
2023-01-29T11:02:53.062Z,-1.44
2023-01-29T11:03:52.753Z,-1.28
2023-01-29T11:04:52.747Z,-1.44
2023-01-29T11:05:52.743Z,-1.44
2023-01-29T11:06:52.746Z,-1.56
2023-01-29T11:07:52.749Z,-1.67
2023-01-29T11:08:52.756Z,-2.17
2023-01-29T11:09:52.750Z,-1.83
2023-01-29T11:10:52.758Z,-1.83
2023-01-29T11:11:52.786Z,-1.67
2023-01-29T11:12:52.754Z,-2
2023-01-29T11:13:52.740Z,-1.67
2023-01-29T11:14:52.753Z,-1.44
2023-01-29T11:15:52.753Z,-1.56
2023-01-29T11:16:52.786Z,-1.28
2023-01-29T11:17:52.754Z,-1.44
2023-01-29T11:18:52.759Z,-1.83
2023-01-29T11:19:52.790Z,-1.83
2023-01-29T11:20:52.753Z,-1.56
2023-01-29T11:21:52.745Z,-1.56
2023-01-29T11:22:52.754Z,-1.44
2023-01-29T11:23:52.751Z,-1.56
2023-01-29T11:24:52.761Z,-1.56
2023-01-29T11:25:52.753Z,-1.28
2023-01-29T11:26:52.750Z,-1.44
2023-01-29T11:27:52.757Z,-1.67
2023-01-29T11:28:52.754Z,-1.83
2023-01-29T11:29:52.767Z,-1.83
2023-01-29T11:30:52.881Z,-2.17
2023-01-29T11:31:52.821Z,-1.67
2023-01-29T11:32:52.750Z,-1.67
2023-01-29T11:33:52.763Z,-1.56
2023-01-29T11:34:52.772Z,-1.56
2023-01-29T11:35:52.857Z,-0.83
2023-01-29T11:36:52.751Z,-0.56
2023-01-29T11:37:52.753Z,-0.83
2023-01-29T11:38:52.758Z,-1.56
2023-01-29T11:39:52.753Z,-1
2023-01-29T11:40:52.759Z,-0.83
2023-01-29T11:41:52.817Z,-1
2023-01-29T11:42:52.836Z,-1.28
2023-01-29T11:43:52.761Z,-1.56
2023-01-29T11:44:52.750Z,-1.56
2023-01-29T11:45:52.752Z,-1.28
2023-01-29T11:46:52.769Z,-1.28
2023-01-29T11:47:52.752Z,-1.28
2023-01-29T11:48:53.602Z,-1.28
2023-01-29T11:49:52.762Z,-1.44
2023-01-29T11:50:52.750Z,-1.56
2023-01-29T11:51:52.769Z,-1.11
2023-01-29T11:52:52.756Z,-1.11
2023-01-29T11:53:52.759Z,-1.44
2023-01-29T11:54:52.817Z,-1
2023-01-29T11:55:52.772Z,-0.83
2023-01-29T11:56:52.758Z,-0.83
2023-01-29T11:57:52.797Z,-1
2023-01-29T11:58:52.745Z,-0.83
2023-01-29T11:59:52.748Z,-1
2023-01-29T12:00:52.752Z,-1.28
2023-01-29T12:01:52.760Z,-1.28
2023-01-29T12:02:52.756Z,-1.56
2023-01-29T12:03:52.791Z,-1.44
2023-01-29T12:04:52.748Z,-1.28
2023-01-29T12:05:52.819Z,-1.44
2023-01-29T12:06:52.743Z,-1.11
2023-01-29T12:07:52.760Z,-1.28
2023-01-29T12:08:52.752Z,-1.28
2023-01-29T12:09:52.756Z,-1.28
2023-01-29T12:10:52.762Z,-1.11
2023-01-29T12:11:52.777Z,-0.83
2023-01-29T12:12:52.744Z,-0.39
2023-01-29T12:13:52.744Z,-1
2023-01-29T12:14:52.750Z,-0.56
2023-01-29T12:15:54.804Z,-0.67
2023-01-29T12:16:52.750Z,-0.39
2023-01-29T12:17:52.790Z,-0.39
2023-01-29T12:18:52.761Z,-0.39
2023-01-29T12:19:52.757Z,-0.28
2023-01-29T12:20:52.753Z,-0.83
2023-01-29T12:21:52.765Z,-0.83
2023-01-29T12:22:52.751Z,-0.83
2023-01-29T12:23:52.770Z,-0.83
2023-01-29T12:24:52.825Z,-0.83
2023-01-29T12:25:52.768Z,-1
2023-01-29T12:26:52.762Z,-0.83
2023-01-29T12:27:52.754Z,-0.67
2023-01-29T12:28:52.762Z,-0.56
2023-01-29T12:29:52.766Z,-0.39
2023-01-29T12:30:52.841Z,-0.39
2023-01-29T12:31:52.757Z,-0.28
2023-01-29T12:32:52.775Z,-0.17
2023-01-29T12:33:52.821Z,-0.39
2023-01-29T12:34:52.774Z,-0.67
2023-01-29T12:35:52.762Z,-0.39
2023-01-29T12:36:52.779Z,-0.67
2023-01-29T12:37:52.767Z,-0.67
2023-01-29T12:38:52.779Z,-0.56
2023-01-29T12:39:52.780Z,-0.67
2023-01-29T12:40:52.778Z,-0.83
2023-01-29T12:41:52.785Z,-0.83
2023-01-29T12:42:52.778Z,-1
2023-01-29T12:43:52.773Z,-0.83
2023-01-29T12:44:52.777Z,-0.83
2023-01-29T12:45:52.781Z,-0.67
2023-01-29T12:46:52.911Z,-1
2023-01-29T12:47:52.773Z,-0.56
2023-01-29T12:48:52.769Z,-0.39
2023-01-29T12:49:52.791Z,-0.67
2023-01-29T12:50:52.837Z,-0.56
2023-01-29T12:51:52.779Z,-0.67
2023-01-29T12:52:52.787Z,-0.56
2023-01-29T12:53:52.797Z,-0.28
2023-01-29T12:54:52.784Z,-0.56
2023-01-29T12:55:52.789Z,-0.39
2023-01-29T12:56:52.789Z,-0.39
2023-01-29T12:57:52.780Z,-0.39
2023-01-29T12:58:52.785Z,-0.56
2023-01-29T12:59:52.796Z,-0.33
2023-01-29T13:00:52.829Z,-0.39